Terminal Aerodrome Forecast
Issued by NWS Caribou, ME

Home | Current Version | Previous Version | Text Only | Print | Product List | Glossary On
Versions: 1 2 3 4 5 6 7 8 9 10 11 12 13 14 15
089
FTUS41 KCAR 221129
TAFCAR
TAF
KCAR 221129Z 2212/2312 00000KT P6SM SCT250
     FM221300 01006KT P6SM SCT250
     FM230900 20004KT 3SM BR SCT250=

USA.gov is the U.S. government's official web portal to all federal, state and local government web resources and services.